sensor_id;sensor_type;location;lat;lon;timestamp;P1;durP1;ratioP1;P2;durP2;ratioP2
7791;SDS011;3940;49.892;10.886;2022-08-19T00:01:14;21.47;;;19.03;;
7791;SDS011;3940;49.892;10.886;2022-08-19T00:03:59;25.63;;;18.67;;
7791;SDS011;3940;49.892;10.886;2022-08-19T00:06:46;24.20;;;19.43;;
7791;SDS011;3940;49.892;10.886;2022-08-19T00:09:31;21.80;;;19.60;;
7791;SDS011;3940;49.892;10.886;2022-08-19T00:12:15;23.53;;;20.53;;
7791;SDS011;3940;49.892;10.886;2022-08-19T00:15:00;25.53;;;21.70;;
7791;SDS011;3940;49.892;10.886;2022-08-19T00:17:44;23.07;;;18.77;;
7791;SDS011;3940;49.892;10.886;2022-08-19T00:20:29;23.60;;;19.60;;
7791;SDS011;3940;49.892;10.886;2022-08-19T00:23:14;25.23;;;20.40;;
7791;SDS011;3940;49.892;10.886;2022-08-19T00:26:00;21.57;;;19.37;;
7791;SDS011;3940;49.892;10.886;2022-08-19T00:28:44;25.97;;;19.70;;
7791;SDS011;3940;49.892;10.886;2022-08-19T00:31:29;19.50;;;17.40;;
7791;SDS011;3940;49.892;10.886;2022-08-19T00:34:14;19.80;;;17.67;;
7791;SDS011;3940;49.892;10.886;2022-08-19T00:36:59;24.50;;;21.17;;
7791;SDS011;3940;49.892;10.886;2022-08-19T00:39:43;23.13;;;18.47;;
7791;SDS011;3940;49.892;10.886;2022-08-19T00:42:27;24.40;;;20.50;;
7791;SDS011;3940;49.892;10.886;2022-08-19T00:45:14;22.53;;;18.57;;
7791;SDS011;3940;49.892;10.886;2022-08-19T00:48:00;21.00;;;18.80;;
7791;SDS011;3940;49.892;10.886;2022-08-19T00:50:48;20.97;;;18.50;;
7791;SDS011;3940;49.892;10.886;2022-08-19T00:53:36;22.03;;;19.13;;
7791;SDS011;3940;49.892;10.886;2022-08-19T00:56:20;21.77;;;19.00;;
7791;SDS011;3940;49.892;10.886;2022-08-19T00:59:05;22.07;;;19.40;;
7791;SDS011;3940;49.892;10.886;2022-08-19T01:01:52;21.87;;;18.07;;
7791;SDS011;3940;49.892;10.886;2022-08-19T01:04:37;20.47;;;18.33;;
7791;SDS011;3940;49.892;10.886;2022-08-19T01:07:22;26.37;;;19.37;;
7791;SDS011;3940;49.892;10.886;2022-08-19T01:10:09;21.00;;;18.80;;
7791;SDS011;3940;49.892;10.886;2022-08-19T01:12:57;23.50;;;19.93;;
7791;SDS011;3940;49.892;10.886;2022-08-19T01:15:46;26.77;;;20.17;;
7791;SDS011;3940;49.892;10.886;2022-08-19T01:18:38;26.70;;;19.40;;
7791;SDS011;3940;49.892;10.886;2022-08-19T01:24:25;23.13;;;20.70;;
7791;SDS011;3940;49.892;10.886;2022-08-19T01:27:10;25.73;;;19.90;;
7791;SDS011;3940;49.892;10.886;2022-08-19T01:29:55;24.20;;;18.10;;
7791;SDS011;3940;49.892;10.886;2022-08-19T01:32:39;22.53;;;19.67;;
7791;SDS011;3940;49.892;10.886;2022-08-19T01:35:24;23.83;;;18.87;;
7791;SDS011;3940;49.892;10.886;2022-08-19T01:38:18;23.03;;;19.20;;
7791;SDS011;3940;49.892;10.886;2022-08-19T01:41:06;22.40;;;17.77;;
7791;SDS011;3940;49.892;10.886;2022-08-19T01:43:51;21.70;;;19.40;;
7791;SDS011;3940;49.892;10.886;2022-08-19T01:46:37;25.60;;;20.67;;
7791;SDS011;3940;49.892;10.886;2022-08-19T01:49:22;24.07;;;19.57;;
7791;SDS011;3940;49.892;10.886;2022-08-19T01:52:08;27.20;;;20.03;;
7791;SDS011;3940;49.892;10.886;2022-08-19T01:54:53;24.50;;;19.10;;
7791;SDS011;3940;49.892;10.886;2022-08-19T01:57:38;22.43;;;19.53;;
7791;SDS011;3940;49.892;10.886;2022-08-19T02:00:25;24.20;;;18.83;;
7791;SDS011;3940;49.892;10.886;2022-08-19T02:03:11;27.87;;;20.43;;
7791;SDS011;3940;49.892;10.886;2022-08-19T02:05:57;26.10;;;19.93;;
7791;SDS011;3940;49.892;10.886;2022-08-19T02:08:43;20.73;;;18.57;;
7791;SDS011;3940;49.892;10.886;2022-08-19T02:11:32;22.97;;;19.57;;
7791;SDS011;3940;49.892;10.886;2022-08-19T02:14:17;25.60;;;20.50;;
7791;SDS011;3940;49.892;10.886;2022-08-19T02:17:02;26.33;;;20.07;;
7791;SDS011;3940;49.892;10.886;2022-08-19T02:19:47;25.80;;;21.70;;
7791;SDS011;3940;49.892;10.886;2022-08-19T02:22:33;24.50;;;19.87;;
7791;SDS011;3940;49.892;10.886;2022-08-19T02:25:19;24.30;;;18.87;;
7791;SDS011;3940;49.892;10.886;2022-08-19T02:28:03;24.93;;;19.77;;
7791;SDS011;3940;49.892;10.886;2022-08-19T02:30:48;25.20;;;19.63;;
7791;SDS011;3940;49.892;10.886;2022-08-19T02:33:33;25.70;;;20.03;;
7791;SDS011;3940;49.892;10.886;2022-08-19T02:36:18;22.13;;;18.07;;
7791;SDS011;3940;49.892;10.886;2022-08-19T02:39:03;23.97;;;20.07;;
7791;SDS011;3940;49.892;10.886;2022-08-19T02:41:47;23.37;;;20.10;;
7791;SDS011;3940;49.892;10.886;2022-08-19T02:44:34;22.47;;;18.73;;
7791;SDS011;3940;49.892;10.886;2022-08-19T02:47:18;23.60;;;18.60;;
7791;SDS011;3940;49.892;10.886;2022-08-19T02:50:03;24.03;;;18.87;;
7791;SDS011;3940;49.892;10.886;2022-08-19T02:52:50;29.83;;;22.30;;
7791;SDS011;3940;49.892;10.886;2022-08-19T02:55:35;24.03;;;19.30;;
7791;SDS011;3940;49.892;10.886;2022-08-19T02:58:20;27.17;;;20.10;;
7791;SDS011;3940;49.892;10.886;2022-08-19T03:01:05;24.70;;;20.93;;
7791;SDS011;3940;49.892;10.886;2022-08-19T03:03:50;23.60;;;19.53;;
7791;SDS011;3940;49.892;10.886;2022-08-19T03:06:36;24.57;;;19.30;;
7791;SDS011;3940;49.892;10.886;2022-08-19T03:09:21;27.10;;;21.33;;
7791;SDS011;3940;49.892;10.886;2022-08-19T03:12:05;26.10;;;19.67;;
7791;SDS011;3940;49.892;10.886;2022-08-19T03:14:50;24.17;;;20.17;;
7791;SDS011;3940;49.892;10.886;2022-08-19T03:17:36;21.07;;;18.50;;
7791;SDS011;3940;49.892;10.886;2022-08-19T03:20:21;26.20;;;20.40;;
7791;SDS011;3940;49.892;10.886;2022-08-19T03:23:05;25.97;;;20.10;;
7791;SDS011;3940;49.892;10.886;2022-08-19T03:25:51;23.23;;;19.50;;
7791;SDS011;3940;49.892;10.886;2022-08-19T03:28:37;22.57;;;19.67;;
7791;SDS011;3940;49.892;10.886;2022-08-19T03:31:22;24.43;;;20.50;;
7791;SDS011;3940;49.892;10.886;2022-08-19T03:34:07;28.80;;;19.60;;
7791;SDS011;3940;49.892;10.886;2022-08-19T03:36:53;25.00;;;21.13;;
7791;SDS011;3940;49.892;10.886;2022-08-19T03:39:40;22.83;;;16.70;;
7791;SDS011;3940;49.892;10.886;2022-08-19T03:42:26;26.30;;;20.80;;
7791;SDS011;3940;49.892;10.886;2022-08-19T03:45:10;30.27;;;20.60;;
7791;SDS011;3940;49.892;10.886;2022-08-19T03:47:55;30.97;;;21.90;;
7791;SDS011;3940;49.892;10.886;2022-08-19T03:50:40;22.87;;;19.27;;
7791;SDS011;3940;49.892;10.886;2022-08-19T03:53:25;26.80;;;20.17;;
7791;SDS011;3940;49.892;10.886;2022-08-19T03:56:10;25.90;;;21.87;;
7791;SDS011;3940;49.892;10.886;2022-08-19T03:58:56;27.03;;;20.13;;
7791;SDS011;3940;49.892;10.886;2022-08-19T04:01:43;26.00;;;20.40;;
7791;SDS011;3940;49.892;10.886;2022-08-19T04:04:27;31.00;;;21.97;;
7791;SDS011;3940;49.892;10.886;2022-08-19T04:07:13;30.50;;;23.20;;
7791;SDS011;3940;49.892;10.886;2022-08-19T04:09:59;28.50;;;21.30;;
7791;SDS011;3940;49.892;10.886;2022-08-19T04:12:44;25.30;;;21.67;;
7791;SDS011;3940;49.892;10.886;2022-08-19T04:15:30;27.80;;;20.57;;
7791;SDS011;3940;49.892;10.886;2022-08-19T04:18:18;31.90;;;22.93;;
7791;SDS011;3940;49.892;10.886;2022-08-19T04:21:03;26.23;;;21.00;;
7791;SDS011;3940;49.892;10.886;2022-08-19T04:23:49;25.53;;;20.27;;
7791;SDS011;3940;49.892;10.886;2022-08-19T04:26:34;23.27;;;20.17;;
7791;SDS011;3940;49.892;10.886;2022-08-19T04:29:22;28.87;;;22.60;;
7791;SDS011;3940;49.892;10.886;2022-08-19T04:32:08;26.30;;;21.53;;
7791;SDS011;3940;49.892;10.886;2022-08-19T04:34:53;26.23;;;20.07;;
7791;SDS011;3940;49.892;10.886;2022-08-19T04:37:42;31.03;;;23.37;;
7791;SDS011;3940;49.892;10.886;2022-08-19T04:40:26;28.90;;;20.70;;
7791;SDS011;3940;49.892;10.886;2022-08-19T04:43:29;29.90;;;19.60;;
7791;SDS011;3940;49.892;10.886;2022-08-19T04:46:14;25.47;;;20.77;;
7791;SDS011;3940;49.892;10.886;2022-08-19T04:49:01;27.83;;;20.37;;
7791;SDS011;3940;49.892;10.886;2022-08-19T04:51:48;23.67;;;19.73;;
7791;SDS011;3940;49.892;10.886;2022-08-19T04:54:45;27.57;;;21.03;;
7791;SDS011;3940;49.892;10.886;2022-08-19T04:57:29;27.53;;;19.20;;
7791;SDS011;3940;49.892;10.886;2022-08-19T05:00:13;26.63;;;21.93;;
7791;SDS011;3940;49.892;10.886;2022-08-19T05:02:58;24.60;;;18.87;;
7791;SDS011;3940;49.892;10.886;2022-08-19T05:05:43;24.77;;;19.67;;
7791;SDS011;3940;49.892;10.886;2022-08-19T05:08:29;31.60;;;21.73;;
7791;SDS011;3940;49.892;10.886;2022-08-19T05:11:14;27.53;;;20.33;;
7791;SDS011;3940;49.892;10.886;2022-08-19T05:14:01;27.80;;;19.67;;
7791;SDS011;3940;49.892;10.886;2022-08-19T05:16:45;32.43;;;21.10;;
7791;SDS011;3940;49.892;10.886;2022-08-19T05:19:29;23.50;;;19.47;;
7791;SDS011;3940;49.892;10.886;2022-08-19T05:22:31;28.47;;;21.93;;
7791;SDS011;3940;49.892;10.886;2022-08-19T05:25:18;26.37;;;21.80;;
7791;SDS011;3940;49.892;10.886;2022-08-19T05:28:04;28.27;;;20.20;;
7791;SDS011;3940;49.892;10.886;2022-08-19T05:30:48;29.37;;;20.50;;
7791;SDS011;3940;49.892;10.886;2022-08-19T05:33:34;27.27;;;20.37;;
7791;SDS011;3940;49.892;10.886;2022-08-19T05:36:19;28.00;;;19.07;;
7791;SDS011;3940;49.892;10.886;2022-08-19T05:39:04;27.37;;;20.33;;
7791;SDS011;3940;49.892;10.886;2022-08-19T05:41:49;24.20;;;20.43;;
7791;SDS011;3940;49.892;10.886;2022-08-19T05:44:39;22.97;;;19.90;;
7791;SDS011;3940;49.892;10.886;2022-08-19T05:47:28;30.63;;;20.40;;
7791;SDS011;3940;49.892;10.886;2022-08-19T05:50:12;30.00;;;20.37;;
7791;SDS011;3940;49.892;10.886;2022-08-19T05:52:56;24.63;;;18.40;;
7791;SDS011;3940;49.892;10.886;2022-08-19T05:55:41;22.30;;;19.03;;
7791;SDS011;3940;49.892;10.886;2022-08-19T05:58:26;22.93;;;18.43;;
7791;SDS011;3940;49.892;10.886;2022-08-19T06:01:12;21.30;;;18.33;;
7791;SDS011;3940;49.892;10.886;2022-08-19T06:03:58;26.50;;;20.60;;
7791;SDS011;3940;49.892;10.886;2022-08-19T06:06:43;36.57;;;19.80;;
7791;SDS011;3940;49.892;10.886;2022-08-19T06:09:28;27.20;;;19.10;;
7791;SDS011;3940;49.892;10.886;2022-08-19T06:12:13;25.30;;;20.30;;
7791;SDS011;3940;49.892;10.886;2022-08-19T06:14:57;27.97;;;18.17;;
7791;SDS011;3940;49.892;10.886;2022-08-19T06:17:42;25.57;;;19.83;;
7791;SDS011;3940;49.892;10.886;2022-08-19T06:20:28;27.43;;;20.07;;
7791;SDS011;3940;49.892;10.886;2022-08-19T06:23:13;24.83;;;19.73;;
7791;SDS011;3940;49.892;10.886;2022-08-19T06:25:57;24.93;;;21.80;;
7791;SDS011;3940;49.892;10.886;2022-08-19T06:28:41;28.60;;;22.37;;
7791;SDS011;3940;49.892;10.886;2022-08-19T06:31:29;22.07;;;17.90;;
7791;SDS011;3940;49.892;10.886;2022-08-19T06:34:17;24.77;;;20.40;;
7791;SDS011;3940;49.892;10.886;2022-08-19T06:37:02;21.93;;;18.30;;
7791;SDS011;3940;49.892;10.886;2022-08-19T06:39:47;32.07;;;21.17;;
7791;SDS011;3940;49.892;10.886;2022-08-19T06:42:32;26.30;;;19.30;;
7791;SDS011;3940;49.892;10.886;2022-08-19T06:45:16;24.10;;;18.17;;
7791;SDS011;3940;49.892;10.886;2022-08-19T06:48:02;20.57;;;18.30;;
7791;SDS011;3940;49.892;10.886;2022-08-19T06:50:49;23.47;;;19.07;;
7791;SDS011;3940;49.892;10.886;2022-08-19T06:53:54;25.10;;;18.50;;
7791;SDS011;3940;49.892;10.886;2022-08-19T06:56:39;25.93;;;19.50;;
7791;SDS011;3940;49.892;10.886;2022-08-19T06:59:24;23.30;;;18.90;;
7791;SDS011;3940;49.892;10.886;2022-08-19T07:02:10;28.23;;;20.00;;
7791;SDS011;3940;49.892;10.886;2022-08-19T07:04:56;32.93;;;22.00;;
7791;SDS011;3940;49.892;10.886;2022-08-19T07:07:41;28.73;;;19.93;;
7791;SDS011;3940;49.892;10.886;2022-08-19T07:10:27;24.50;;;19.53;;
7791;SDS011;3940;49.892;10.886;2022-08-19T07:13:11;26.30;;;20.07;;
7791;SDS011;3940;49.892;10.886;2022-08-19T07:15:56;23.00;;;19.03;;
7791;SDS011;3940;49.892;10.886;2022-08-19T07:18:40;20.57;;;16.97;;
7791;SDS011;3940;49.892;10.886;2022-08-19T07:21:26;23.30;;;17.50;;
7791;SDS011;3940;49.892;10.886;2022-08-19T07:24:11;18.57;;;16.60;;
7791;SDS011;3940;49.892;10.886;2022-08-19T07:26:57;23.40;;;17.50;;
7791;SDS011;3940;49.892;10.886;2022-08-19T07:29:43;21.67;;;18.30;;
7791;SDS011;3940;49.892;10.886;2022-08-19T07:32:29;21.60;;;18.47;;
7791;SDS011;3940;49.892;10.886;2022-08-19T07:35:14;20.93;;;17.80;;
7791;SDS011;3940;49.892;10.886;2022-08-19T07:37:59;23.23;;;17.70;;
7791;SDS011;3940;49.892;10.886;2022-08-19T07:40:46;22.60;;;18.87;;
7791;SDS011;3940;49.892;10.886;2022-08-19T07:43:31;30.23;;;17.90;;
7791;SDS011;3940;49.892;10.886;2022-08-19T07:46:16;22.00;;;19.00;;
7791;SDS011;3940;49.892;10.886;2022-08-19T07:49:01;20.80;;;17.93;;
7791;SDS011;3940;49.892;10.886;2022-08-19T07:51:47;18.43;;;16.43;;
7791;SDS011;3940;49.892;10.886;2022-08-19T07:54:34;21.13;;;18.27;;
7791;SDS011;3940;49.892;10.886;2022-08-19T07:57:21;17.70;;;15.13;;
7791;SDS011;3940;49.892;10.886;2022-08-19T08:00:05;18.93;;;14.60;;
7791;SDS011;3940;49.892;10.886;2022-08-19T08:02:51;20.63;;;14.97;;
7791;SDS011;3940;49.892;10.886;2022-08-19T08:05:36;21.23;;;16.47;;
7791;SDS011;3940;49.892;10.886;2022-08-19T08:08:40;21.03;;;16.07;;
7791;SDS011;3940;49.892;10.886;2022-08-19T08:11:42;23.10;;;15.63;;
7791;SDS011;3940;49.892;10.886;2022-08-19T08:14:34;17.33;;;15.57;;
7791;SDS011;3940;49.892;10.886;2022-08-19T08:17:23;17.93;;;15.37;;
7791;SDS011;3940;49.892;10.886;2022-08-19T08:20:09;19.30;;;16.60;;
7791;SDS011;3940;49.892;10.886;2022-08-19T08:22:54;21.77;;;18.07;;
7791;SDS011;3940;49.892;10.886;2022-08-19T08:25:54;21.77;;;16.20;;
7791;SDS011;3940;49.892;10.886;2022-08-19T08:28:41;18.97;;;16.97;;
7791;SDS011;3940;49.892;10.886;2022-08-19T08:31:25;20.70;;;15.93;;
7791;SDS011;3940;49.892;10.886;2022-08-19T08:34:11;21.00;;;15.93;;
7791;SDS011;3940;49.892;10.886;2022-08-19T08:36:57;18.43;;;16.43;;
7791;SDS011;3940;49.892;10.886;2022-08-19T08:39:41;24.17;;;17.33;;
7791;SDS011;3940;49.892;10.886;2022-08-19T08:42:30;17.23;;;15.43;;
7791;SDS011;3940;49.892;10.886;2022-08-19T08:45:20;20.03;;;16.23;;
7791;SDS011;3940;49.892;10.886;2022-08-19T08:48:08;17.13;;;14.70;;
7791;SDS011;3940;49.892;10.886;2022-08-19T08:51:03;16.60;;;15.00;;
7791;SDS011;3940;49.892;10.886;2022-08-19T08:53:53;16.93;;;15.20;;
7791;SDS011;3940;49.892;10.886;2022-08-19T08:56:39;17.43;;;15.50;;
7791;SDS011;3940;49.892;10.886;2022-08-19T08:59:28;20.57;;;15.13;;
7791;SDS011;3940;49.892;10.886;2022-08-19T09:02:16;17.87;;;15.60;;
7791;SDS011;3940;49.892;10.886;2022-08-19T09:05:01;18.63;;;15.33;;
7791;SDS011;3940;49.892;10.886;2022-08-19T09:07:53;17.13;;;15.40;;
7791;SDS011;3940;49.892;10.886;2022-08-19T09:10:46;18.83;;;15.63;;
7791;SDS011;3940;49.892;10.886;2022-08-19T09:13:39;15.73;;;14.03;;
7791;SDS011;3940;49.892;10.886;2022-08-19T09:16:35;20.60;;;14.30;;
7791;SDS011;3940;49.892;10.886;2022-08-19T09:19:22;14.30;;;12.80;;
7791;SDS011;3940;49.892;10.886;2022-08-19T09:22:06;15.90;;;14.20;;
7791;SDS011;3940;49.892;10.886;2022-08-19T09:24:51;15.47;;;13.90;;
7791;SDS011;3940;49.892;10.886;2022-08-19T09:27:38;15.77;;;14.03;;
7791;SDS011;3940;49.892;10.886;2022-08-19T09:30:26;15.30;;;13.60;;
7791;SDS011;3940;49.892;10.886;2022-08-19T09:33:12;16.10;;;14.33;;
7791;SDS011;3940;49.892;10.886;2022-08-19T09:36:06;15.80;;;14.23;;
7791;SDS011;3940;49.892;10.886;2022-08-19T09:38:52;15.80;;;13.37;;
7791;SDS011;3940;49.892;10.886;2022-08-19T09:41:38;15.60;;;13.80;;
7791;SDS011;3940;49.892;10.886;2022-08-19T09:44:23;14.93;;;13.40;;
7791;SDS011;3940;49.892;10.886;2022-08-19T09:47:08;13.23;;;11.90;;
7791;SDS011;3940;49.892;10.886;2022-08-19T09:49:55;14.27;;;12.97;;
7791;SDS011;3940;49.892;10.886;2022-08-19T09:52:39;15.30;;;13.70;;
7791;SDS011;3940;49.892;10.886;2022-08-19T09:55:25;15.20;;;13.47;;
7791;SDS011;3940;49.892;10.886;2022-08-19T09:58:10;22.23;;;14.70;;
7791;SDS011;3940;49.892;10.886;2022-08-19T10:00:55;16.00;;;14.37;;
7791;SDS011;3940;49.892;10.886;2022-08-19T10:03:42;15.53;;;13.90;;
7791;SDS011;3940;49.892;10.886;2022-08-19T10:06:26;18.67;;;15.20;;
7791;SDS011;3940;49.892;10.886;2022-08-19T10:09:16;21.00;;;15.73;;
7791;SDS011;3940;49.892;10.886;2022-08-19T10:12:02;15.53;;;13.77;;
7791;SDS011;3940;49.892;10.886;2022-08-19T10:14:48;18.77;;;13.70;;
7791;SDS011;3940;49.892;10.886;2022-08-19T10:17:34;17.00;;;15.23;;
7791;SDS011;3940;49.892;10.886;2022-08-19T10:20:18;16.97;;;14.60;;
7791;SDS011;3940;49.892;10.886;2022-08-19T10:23:03;17.47;;;15.20;;
7791;SDS011;3940;49.892;10.886;2022-08-19T10:25:48;17.20;;;15.50;;
7791;SDS011;3940;49.892;10.886;2022-08-19T10:28:34;18.97;;;16.03;;
7791;SDS011;3940;49.892;10.886;2022-08-19T10:31:24;23.27;;;17.90;;
7791;SDS011;3940;49.892;10.886;2022-08-19T10:34:10;19.33;;;15.20;;
7791;SDS011;3940;49.892;10.886;2022-08-19T10:36:55;19.00;;;16.97;;
7791;SDS011;3940;49.892;10.886;2022-08-19T10:39:41;23.60;;;18.90;;
7791;SDS011;3940;49.892;10.886;2022-08-19T10:42:26;20.60;;;18.60;;
7791;SDS011;3940;49.892;10.886;2022-08-19T10:45:10;19.13;;;17.13;;
7791;SDS011;3940;49.892;10.886;2022-08-19T10:47:55;18.93;;;16.60;;
7791;SDS011;3940;49.892;10.886;2022-08-19T10:50:39;20.80;;;17.80;;
7791;SDS011;3940;49.892;10.886;2022-08-19T10:53:43;17.43;;;15.70;;
7791;SDS011;3940;49.892;10.886;2022-08-19T10:56:27;24.20;;;18.90;;
7791;SDS011;3940;49.892;10.886;2022-08-19T10:59:32;19.10;;;17.07;;
7791;SDS011;3940;49.892;10.886;2022-08-19T11:02:16;18.40;;;16.40;;
7791;SDS011;3940;49.892;10.886;2022-08-19T11:05:00;21.30;;;19.17;;
7791;SDS011;3940;49.892;10.886;2022-08-19T11:07:45;22.60;;;18.47;;
7791;SDS011;3940;49.892;10.886;2022-08-19T11:10:33;21.07;;;18.87;;
7791;SDS011;3940;49.892;10.886;2022-08-19T11:13:18;20.40;;;17.70;;
7791;SDS011;3940;49.892;10.886;2022-08-19T11:16:04;18.90;;;16.53;;
7791;SDS011;3940;49.892;10.886;2022-08-19T11:18:53;22.00;;;16.93;;
7791;SDS011;3940;49.892;10.886;2022-08-19T11:21:43;19.10;;;17.20;;
7791;SDS011;3940;49.892;10.886;2022-08-19T11:24:29;21.13;;;18.53;;
7791;SDS011;3940;49.892;10.886;2022-08-19T11:27:14;20.10;;;18.20;;
7791;SDS011;3940;49.892;10.886;2022-08-19T11:29:59;20.90;;;18.17;;
7791;SDS011;3940;49.892;10.886;2022-08-19T11:32:44;21.00;;;18.63;;
7791;SDS011;3940;49.892;10.886;2022-08-19T11:35:29;19.07;;;17.10;;
7791;SDS011;3940;49.892;10.886;2022-08-19T11:38:13;21.70;;;19.53;;
7791;SDS011;3940;49.892;10.886;2022-08-19T11:40:59;21.57;;;19.37;;
7791;SDS011;3940;49.892;10.886;2022-08-19T11:43:44;20.20;;;16.43;;
7791;SDS011;3940;49.892;10.886;2022-08-19T11:46:29;17.83;;;16.03;;
7791;SDS011;3940;49.892;10.886;2022-08-19T11:49:15;19.53;;;17.47;;
7791;SDS011;3940;49.892;10.886;2022-08-19T11:52:03;22.13;;;19.40;;
7791;SDS011;3940;49.892;10.886;2022-08-19T11:54:47;20.70;;;17.57;;
7791;SDS011;3940;49.892;10.886;2022-08-19T11:57:32;18.93;;;17.03;;
7791;SDS011;3940;49.892;10.886;2022-08-19T12:00:17;17.50;;;15.60;;
7791;SDS011;3940;49.892;10.886;2022-08-19T12:03:02;17.50;;;14.50;;
7791;SDS011;3940;49.892;10.886;2022-08-19T12:06:08;18.37;;;15.90;;
7791;SDS011;3940;49.892;10.886;2022-08-19T12:09:16;17.97;;;16.27;;
7791;SDS011;3940;49.892;10.886;2022-08-19T12:12:25;18.53;;;15.23;;
7791;SDS011;3940;49.892;10.886;2022-08-19T12:15:36;19.20;;;15.43;;
7791;SDS011;3940;49.892;10.886;2022-08-19T12:18:22;17.57;;;15.03;;
7791;SDS011;3940;49.892;10.886;2022-08-19T12:21:09;17.57;;;15.80;;
7791;SDS011;3940;49.892;10.886;2022-08-19T12:23:57;22.97;;;20.70;;
7791;SDS011;3940;49.892;10.886;2022-08-19T12:26:45;16.27;;;14.60;;
7791;SDS011;3940;49.892;10.886;2022-08-19T12:30:04;16.70;;;14.93;;
7791;SDS011;3940;49.892;10.886;2022-08-19T12:32:50;16.53;;;14.73;;
7791;SDS011;3940;49.892;10.886;2022-08-19T12:35:35;15.33;;;13.60;;
7791;SDS011;3940;49.892;10.886;2022-08-19T12:38:26;15.30;;;12.97;;
7791;SDS011;3940;49.892;10.886;2022-08-19T12:41:12;15.70;;;13.37;;
7791;SDS011;3940;49.892;10.886;2022-08-19T12:44:01;15.83;;;12.50;;
7791;SDS011;3940;49.892;10.886;2022-08-19T12:46:46;15.70;;;12.67;;
7791;SDS011;3940;49.892;10.886;2022-08-19T12:49:31;18.80;;;14.67;;
7791;SDS011;3940;49.892;10.886;2022-08-19T12:52:17;19.20;;;16.03;;
7791;SDS011;3940;49.892;10.886;2022-08-19T12:55:05;21.47;;;17.23;;
7791;SDS011;3940;49.892;10.886;2022-08-19T12:57:51;19.80;;;16.40;;
7791;SDS011;3940;49.892;10.886;2022-08-19T13:00:35;18.97;;;16.17;;
7791;SDS011;3940;49.892;10.886;2022-08-19T13:03:20;23.17;;;16.07;;
7791;SDS011;3940;49.892;10.886;2022-08-19T13:06:10;18.13;;;14.63;;
7791;SDS011;3940;49.892;10.886;2022-08-19T13:08:55;17.10;;;15.13;;
7791;SDS011;3940;49.892;10.886;2022-08-19T13:11:40;15.37;;;13.87;;
7791;SDS011;3940;49.892;10.886;2022-08-19T13:14:25;15.93;;;13.77;;
7791;SDS011;3940;49.892;10.886;2022-08-19T13:17:15;15.77;;;14.27;;
7791;SDS011;3940;49.892;10.886;2022-08-19T13:20:00;17.40;;;13.10;;
7791;SDS011;3940;49.892;10.886;2022-08-19T13:22:46;15.83;;;13.07;;
7791;SDS011;3940;49.892;10.886;2022-08-19T13:25:31;13.23;;;11.63;;
7791;SDS011;3940;49.892;10.886;2022-08-19T13:28:16;15.40;;;13.90;;
7791;SDS011;3940;49.892;10.886;2022-08-19T13:31:00;16.33;;;14.20;;
7791;SDS011;3940;49.892;10.886;2022-08-19T13:34:04;15.03;;;13.53;;
7791;SDS011;3940;49.892;10.886;2022-08-19T13:36:52;16.57;;;13.13;;
7791;SDS011;3940;49.892;10.886;2022-08-19T13:39:37;14.00;;;12.60;;
7791;SDS011;3940;49.892;10.886;2022-08-19T13:42:22;13.00;;;11.70;;
7791;SDS011;3940;49.892;10.886;2022-08-19T13:45:07;12.23;;;11.03;;
7791;SDS011;3940;49.892;10.886;2022-08-19T13:47:54;13.07;;;11.73;;
7791;SDS011;3940;49.892;10.886;2022-08-19T13:50:40;11.70;;;9.97;;
7791;SDS011;3940;49.892;10.886;2022-08-19T13:53:26;15.57;;;12.47;;
7791;SDS011;3940;49.892;10.886;2022-08-19T13:56:12;12.30;;;11.00;;
7791;SDS011;3940;49.892;10.886;2022-08-19T13:58:59;11.33;;;10.23;;
7791;SDS011;3940;49.892;10.886;2022-08-19T14:01:45;11.00;;;10.00;;
7791;SDS011;3940;49.892;10.886;2022-08-19T14:04:29;28.50;;;11.50;;
7791;SDS011;3940;49.892;10.886;2022-08-19T14:07:13;11.20;;;10.00;;
7791;SDS011;3940;49.892;10.886;2022-08-19T14:09:58;11.43;;;10.23;;
7791;SDS011;3940;49.892;10.886;2022-08-19T14:12:42;12.63;;;11.00;;
7791;SDS011;3940;49.892;10.886;2022-08-19T14:15:27;9.37;;;8.47;;
7791;SDS011;3940;49.892;10.886;2022-08-19T14:18:12;8.93;;;8.13;;
7791;SDS011;3940;49.892;10.886;2022-08-19T14:20:57;8.93;;;8.13;;
7791;SDS011;3940;49.892;10.886;2022-08-19T14:23:42;8.77;;;7.97;;
7791;SDS011;3940;49.892;10.886;2022-08-19T14:26:27;8.60;;;7.67;;
7791;SDS011;3940;49.892;10.886;2022-08-19T14:29:11;8.60;;;7.90;;
7791;SDS011;3940;49.892;10.886;2022-08-19T14:31:56;9.90;;;8.93;;
7791;SDS011;3940;49.892;10.886;2022-08-19T14:34:42;7.27;;;6.67;;
7791;SDS011;3940;49.892;10.886;2022-08-19T14:37:29;7.77;;;7.00;;
7791;SDS011;3940;49.892;10.886;2022-08-19T14:40:15;10.27;;;8.23;;
7791;SDS011;3940;49.892;10.886;2022-08-19T14:43:02;8.80;;;8.10;;
7791;SDS011;3940;49.892;10.886;2022-08-19T14:45:48;8.23;;;7.43;;
7791;SDS011;3940;49.892;10.886;2022-08-19T14:48:32;11.57;;;7.67;;
7791;SDS011;3940;49.892;10.886;2022-08-19T14:51:17;7.30;;;6.60;;
7791;SDS011;3940;49.892;10.886;2022-08-19T14:54:03;7.10;;;6.40;;
7791;SDS011;3940;49.892;10.886;2022-08-19T14:56:48;9.90;;;7.33;;
7791;SDS011;3940;49.892;10.886;2022-08-19T14:59:33;7.20;;;6.50;;
7791;SDS011;3940;49.892;10.886;2022-08-19T15:02:18;6.30;;;5.70;;
7791;SDS011;3940;49.892;10.886;2022-08-19T15:05:04;8.50;;;7.67;;
7791;SDS011;3940;49.892;10.886;2022-08-19T15:07:49;8.27;;;7.57;;
7791;SDS011;3940;49.892;10.886;2022-08-19T15:10:34;8.20;;;7.40;;
7791;SDS011;3940;49.892;10.886;2022-08-19T15:13:18;7.67;;;7.07;;
7791;SDS011;3940;49.892;10.886;2022-08-19T15:16:03;9.83;;;8.80;;
7791;SDS011;3940;49.892;10.886;2022-08-19T15:18:49;9.97;;;9.07;;
7791;SDS011;3940;49.892;10.886;2022-08-19T15:21:35;14.03;;;8.33;;
7791;SDS011;3940;49.892;10.886;2022-08-19T15:24:20;10.37;;;8.40;;
7791;SDS011;3940;49.892;10.886;2022-08-19T15:27:05;7.63;;;6.90;;
7791;SDS011;3940;49.892;10.886;2022-08-19T15:29:49;8.87;;;8.07;;
7791;SDS011;3940;49.892;10.886;2022-08-19T15:32:34;14.10;;;8.20;;
7791;SDS011;3940;49.892;10.886;2022-08-19T15:35:20;11.10;;;8.90;;
7791;SDS011;3940;49.892;10.886;2022-08-19T15:38:05;11.10;;;7.77;;
7791;SDS011;3940;49.892;10.886;2022-08-19T15:40:50;9.67;;;8.63;;
7791;SDS011;3940;49.892;10.886;2022-08-19T15:43:35;13.67;;;10.30;;
7791;SDS011;3940;49.892;10.886;2022-08-19T15:46:26;21.50;;;16.57;;
7791;SDS011;3940;49.892;10.886;2022-08-19T15:49:15;12.30;;;8.90;;
7791;SDS011;3940;49.892;10.886;2022-08-19T15:52:01;12.67;;;11.33;;
7791;SDS011;3940;49.892;10.886;2022-08-19T15:54:45;12.47;;;10.50;;
7791;SDS011;3940;49.892;10.886;2022-08-19T15:57:30;9.43;;;8.40;;
7791;SDS011;3940;49.892;10.886;2022-08-19T16:00:25;10.10;;;8.90;;
7791;SDS011;3940;49.892;10.886;2022-08-19T16:03:23;13.13;;;10.37;;
7791;SDS011;3940;49.892;10.886;2022-08-19T16:06:25;12.93;;;10.40;;
7791;SDS011;3940;49.892;10.886;2022-08-19T16:09:11;13.73;;;11.37;;
7791;SDS011;3940;49.892;10.886;2022-08-19T16:11:57;13.47;;;11.67;;
7791;SDS011;3940;49.892;10.886;2022-08-19T16:14:44;11.87;;;10.63;;
7791;SDS011;3940;49.892;10.886;2022-08-19T16:17:30;13.90;;;11.93;;
7791;SDS011;3940;49.892;10.886;2022-08-19T16:20:14;14.60;;;12.00;;
7791;SDS011;3940;49.892;10.886;2022-08-19T16:22:59;12.00;;;10.90;;
7791;SDS011;3940;49.892;10.886;2022-08-19T16:25:46;16.77;;;11.50;;
7791;SDS011;3940;49.892;10.886;2022-08-19T16:28:31;24.00;;;13.50;;
7791;SDS011;3940;49.892;10.886;2022-08-19T16:31:16;13.23;;;11.93;;
7791;SDS011;3940;49.892;10.886;2022-08-19T16:34:00;19.50;;;14.57;;